Forbes Field Topeka US
ICAO: KFOE
IATA: FOE
Category: Medium
Scheduled Services: No

Elevation: 1078 ft
TransAlt. 18000 ft.

Airport Communications:
KANSAS CITY CNTR:123.8
ATIS:128.25
CTAF:120.8
GND:121.7
ARNG OPS:41.7
ANG OPS:28.65
WICHITA RDO:122.45
TWR:120.8
UNICOM:122.95

KFOE Zoom In..

Runways:

(A) RW 03 length 7001 ft width 150 ft
---- / hdg 35

(B) RW 13 length 12803 ft width 200 ft
---- / hdg 132

(C) RW 21 length 7001 ft width 150 ft
---- / hdg 215

(D) RW 31 length 12803 ft width 200 ft
ILS 110.10 / hdg 312

Location; KFOE
Day. 03 / Time. 09.53 Zulu
* Altimeter: 30.25
* Temperature: 02° c. 35.6°f.
* Wind from: 360° Speed 05 kn.
Dewpoint: -05° c.
Visibility: 10 Statute Miles.
Clouds: Overcast 2700 ft.

KFOE 030953Z AUTO 36005KT 10SM OVC027 02/M05 A3025 RMK AO2 SLP249 T00171050

Going to: --> -->


Wind From 360°
Speed 05 kn.

 
 
jpsmedia worldairports.se 2020   terms of use